Mobirise responsive web design software

MOGADOURO

METAR: LPMU 222005Z 22016KT 14/03 Q1008
Latest Report: 2017-11-22 20:09:15Z (0 minutes ago)

 07:27 LT      16:58 LT

Location: Lugar da Eira, Azinhoso, 6km NE of Mogadouro
Lat: 412340N Long: 0064104W
Elevation: 714m/2344FT
Runway: 03/21 (1205x22m)
Frequency: 120.100 Mhz

Approved Traffic: VFR / Ultralight Aircraft
Hours of Operation: Open on request PPR, at least 3 hours in advance. Gliders activities from GND to FL095, 20 nm radius on weekends and national holidays

 

 

 

 

 

 

 

 

image
 
 
 
image

PRESENT WEATHER - MOGADOURO

Latest Report: 2017-11-22 20:09:15Z
 

220/16KT

14ºC

3ºC

1008 hPa

0.00 mm

WEATHER HISTORY

[ All times in Zulu ]

  SEARCH METAR HISTORY
METAR (Last Hour)
LPMU 222000Z 26016KT 14/03 Q1009
LPMU 221950Z 25014KT 14/03 Q1008
LPMU 221940Z 25014KT 14/03 Q1009
LPMU 221930Z 25017KT 14/03 Q1008
LPMU 221920Z 23014KT 14/03 Q1008
LPMU 221910Z 23014KT 14/03 Q1008
Wind Trend (Last Hour)
Average Wind Direction: 250 °
Average Wind Speed: 15 KT
 
Maximum Wind Speed: 23 KT
Maximum Gust: 23 KT
 
Station records since2016-09-15 16:12:44
Minimum Pressure: 992 hPa @ 2017-02-12 15:52:15
Maximum Pressure: 1038 hPa @ 2016-12-24 09:50:07
  
Minimum Temperature: -6° C @ 2017-01-01 06:30:16
Maximum Temperature: 37° C @ 2017-06-17 14:21:09
  
Maximum Wind: 49 KT @ 2017-02-03 03:45:24
Maximum Gust: 70 KT @ 2017-02-02 11:44:49
  
Maximum Daily Rain (mm): 10.16 mm @ 2017-05-05 17:16:03
Days without rain: 17 days (since 2017-11-04 15:07:05)